sensor_id;sensor_type;location;lat;lon;timestamp;P1;durP1;ratioP1;P2;durP2;ratioP2
8532;SDS011;4304;53.876;10.662;2023-08-12T00:00:15;4.40;;;1.67;;
8532;SDS011;4304;53.876;10.662;2023-08-12T00:02:41;3.78;;;1.75;;
8532;SDS011;4304;53.876;10.662;2023-08-12T00:05:07;4.68;;;1.70;;
8532;SDS011;4304;53.876;10.662;2023-08-12T00:07:33;5.05;;;2.03;;
8532;SDS011;4304;53.876;10.662;2023-08-12T00:09:59;4.88;;;1.65;;
8532;SDS011;4304;53.876;10.662;2023-08-12T00:12:26;2.90;;;1.40;;
8532;SDS011;4304;53.876;10.662;2023-08-12T00:14:52;3.10;;;1.42;;
8532;SDS011;4304;53.876;10.662;2023-08-12T00:17:17;4.38;;;1.60;;
8532;SDS011;4304;53.876;10.662;2023-08-12T00:19:42;3.78;;;1.63;;
8532;SDS011;4304;53.876;10.662;2023-08-12T00:22:08;6.93;;;2.33;;
8532;SDS011;4304;53.876;10.662;2023-08-12T00:24:33;3.83;;;1.52;;
8532;SDS011;4304;53.876;10.662;2023-08-12T00:26:58;4.28;;;1.42;;
8532;SDS011;4304;53.876;10.662;2023-08-12T00:29:24;3.53;;;1.15;;
8532;SDS011;4304;53.876;10.662;2023-08-12T00:31:49;3.33;;;1.30;;
8532;SDS011;4304;53.876;10.662;2023-08-12T00:34:14;4.38;;;1.55;;
8532;SDS011;4304;53.876;10.662;2023-08-12T00:36:40;3.58;;;1.65;;
8532;SDS011;4304;53.876;10.662;2023-08-12T00:39:05;3.50;;;1.60;;
8532;SDS011;4304;53.876;10.662;2023-08-12T00:41:31;8.77;;;1.42;;
8532;SDS011;4304;53.876;10.662;2023-08-12T00:43:56;3.08;;;1.50;;
8532;SDS011;4304;53.876;10.662;2023-08-12T00:46:21;2.90;;;1.08;;
8532;SDS011;4304;53.876;10.662;2023-08-12T00:48:47;3.72;;;1.38;;
8532;SDS011;4304;53.876;10.662;2023-08-12T00:51:15;3.63;;;1.45;;
8532;SDS011;4304;53.876;10.662;2023-08-12T00:53:41;2.75;;;1.38;;
8532;SDS011;4304;53.876;10.662;2023-08-12T00:56:07;3.38;;;1.58;;
8532;SDS011;4304;53.876;10.662;2023-08-12T00:58:33;3.97;;;1.70;;
8532;SDS011;4304;53.876;10.662;2023-08-12T01:00:59;4.45;;;1.42;;
8532;SDS011;4304;53.876;10.662;2023-08-12T01:03:24;3.50;;;1.67;;
8532;SDS011;4304;53.876;10.662;2023-08-12T01:05:50;3.67;;;1.48;;
8532;SDS011;4304;53.876;10.662;2023-08-12T01:08:15;2.08;;;1.10;;
8532;SDS011;4304;53.876;10.662;2023-08-12T01:10:43;3.05;;;1.10;;
8532;SDS011;4304;53.876;10.662;2023-08-12T01:13:32;3.65;;;1.40;;
8532;SDS011;4304;53.876;10.662;2023-08-12T01:16:05;3.20;;;1.45;;
8532;SDS011;4304;53.876;10.662;2023-08-12T01:18:33;7.90;;;1.40;;
8532;SDS011;4304;53.876;10.662;2023-08-12T01:21:00;3.92;;;1.23;;
8532;SDS011;4304;53.876;10.662;2023-08-12T01:23:28;3.45;;;1.27;;
8532;SDS011;4304;53.876;10.662;2023-08-12T01:25:54;5.30;;;1.77;;
8532;SDS011;4304;53.876;10.662;2023-08-12T01:28:19;3.40;;;1.48;;
8532;SDS011;4304;53.876;10.662;2023-08-12T01:30:57;3.38;;;1.40;;
8532;SDS011;4304;53.876;10.662;2023-08-12T01:33:42;4.05;;;1.73;;
8532;SDS011;4304;53.876;10.662;2023-08-12T01:36:17;3.60;;;1.70;;
8532;SDS011;4304;53.876;10.662;2023-08-12T01:38:44;5.47;;;1.17;;
8532;SDS011;4304;53.876;10.662;2023-08-12T01:41:11;2.47;;;1.08;;
8532;SDS011;4304;53.876;10.662;2023-08-12T01:43:38;8.75;;;1.90;;
8532;SDS011;4304;53.876;10.662;2023-08-12T01:46:04;6.10;;;1.73;;
8532;SDS011;4304;53.876;10.662;2023-08-12T01:48:30;4.25;;;1.83;;
8532;SDS011;4304;53.876;10.662;2023-08-12T01:50:55;2.90;;;1.45;;
8532;SDS011;4304;53.876;10.662;2023-08-12T01:53:21;3.55;;;1.65;;
8532;SDS011;4304;53.876;10.662;2023-08-12T01:55:47;4.05;;;1.70;;
8532;SDS011;4304;53.876;10.662;2023-08-12T01:58:14;3.22;;;1.50;;
8532;SDS011;4304;53.876;10.662;2023-08-12T02:00:39;3.10;;;1.25;;
8532;SDS011;4304;53.876;10.662;2023-08-12T02:03:05;3.97;;;1.40;;
8532;SDS011;4304;53.876;10.662;2023-08-12T02:05:31;4.82;;;1.70;;
8532;SDS011;4304;53.876;10.662;2023-08-12T02:07:57;4.50;;;1.85;;
8532;SDS011;4304;53.876;10.662;2023-08-12T02:10:22;6.40;;;2.13;;
8532;SDS011;4304;53.876;10.662;2023-08-12T02:12:47;4.20;;;1.50;;
8532;SDS011;4304;53.876;10.662;2023-08-12T02:15:13;3.70;;;1.40;;
8532;SDS011;4304;53.876;10.662;2023-08-12T02:17:38;4.65;;;2.00;;
8532;SDS011;4304;53.876;10.662;2023-08-12T02:20:04;1.88;;;0.93;;
8532;SDS011;4304;53.876;10.662;2023-08-12T02:22:30;4.82;;;1.45;;
8532;SDS011;4304;53.876;10.662;2023-08-12T02:24:55;5.38;;;1.95;;
8532;SDS011;4304;53.876;10.662;2023-08-12T02:27:20;16.58;;;2.70;;
8532;SDS011;4304;53.876;10.662;2023-08-12T02:29:46;3.88;;;1.58;;
8532;SDS011;4304;53.876;10.662;2023-08-12T02:32:11;5.53;;;2.50;;
8532;SDS011;4304;53.876;10.662;2023-08-12T02:34:37;4.45;;;1.77;;
8532;SDS011;4304;53.876;10.662;2023-08-12T02:37:02;3.50;;;1.25;;
8532;SDS011;4304;53.876;10.662;2023-08-12T02:39:27;4.25;;;1.83;;
8532;SDS011;4304;53.876;10.662;2023-08-12T02:41:53;5.72;;;1.88;;
8532;SDS011;4304;53.876;10.662;2023-08-12T02:44:18;2.97;;;1.30;;
8532;SDS011;4304;53.876;10.662;2023-08-12T02:46:43;4.72;;;2.17;;
8532;SDS011;4304;53.876;10.662;2023-08-12T02:49:09;5.85;;;1.67;;
8532;SDS011;4304;53.876;10.662;2023-08-12T02:51:34;3.47;;;1.60;;
8532;SDS011;4304;53.876;10.662;2023-08-12T02:53:59;3.60;;;1.70;;
8532;SDS011;4304;53.876;10.662;2023-08-12T02:56:25;3.22;;;1.30;;
8532;SDS011;4304;53.876;10.662;2023-08-12T02:58:50;3.78;;;1.85;;
8532;SDS011;4304;53.876;10.662;2023-08-12T03:01:15;3.58;;;1.27;;
8532;SDS011;4304;53.876;10.662;2023-08-12T03:03:41;8.18;;;2.20;;
8532;SDS011;4304;53.876;10.662;2023-08-12T03:06:06;3.13;;;1.50;;
8532;SDS011;4304;53.876;10.662;2023-08-12T03:08:32;4.30;;;2.03;;
8532;SDS011;4304;53.876;10.662;2023-08-12T03:11:00;3.13;;;1.38;;
8532;SDS011;4304;53.876;10.662;2023-08-12T03:13:27;3.05;;;1.30;;
8532;SDS011;4304;53.876;10.662;2023-08-12T03:15:53;3.15;;;1.35;;
8532;SDS011;4304;53.876;10.662;2023-08-12T03:18:18;3.25;;;1.40;;
8532;SDS011;4304;53.876;10.662;2023-08-12T03:20:44;2.78;;;1.33;;
8532;SDS011;4304;53.876;10.662;2023-08-12T03:23:09;3.15;;;1.48;;
8532;SDS011;4304;53.876;10.662;2023-08-12T03:25:34;4.20;;;1.73;;
8532;SDS011;4304;53.876;10.662;2023-08-12T03:28:00;2.30;;;1.10;;
8532;SDS011;4304;53.876;10.662;2023-08-12T03:30:25;2.83;;;1.42;;
8532;SDS011;4304;53.876;10.662;2023-08-12T03:32:51;4.25;;;1.27;;
8532;SDS011;4304;53.876;10.662;2023-08-12T03:35:17;2.38;;;1.15;;
8532;SDS011;4304;53.876;10.662;2023-08-12T03:37:45;2.80;;;1.33;;
8532;SDS011;4304;53.876;10.662;2023-08-12T03:40:10;3.70;;;1.60;;
8532;SDS011;4304;53.876;10.662;2023-08-12T03:42:36;4.25;;;1.15;;
8532;SDS011;4304;53.876;10.662;2023-08-12T03:45:01;3.60;;;1.33;;
8532;SDS011;4304;53.876;10.662;2023-08-12T03:47:27;3.10;;;1.20;;
8532;SDS011;4304;53.876;10.662;2023-08-12T03:49:52;4.05;;;1.52;;
8532;SDS011;4304;53.876;10.662;2023-08-12T03:52:18;2.72;;;1.23;;
8532;SDS011;4304;53.876;10.662;2023-08-12T03:54:43;4.72;;;1.23;;
8532;SDS011;4304;53.876;10.662;2023-08-12T03:57:08;3.03;;;1.10;;
8532;SDS011;4304;53.876;10.662;2023-08-12T03:59:34;5.22;;;1.50;;
8532;SDS011;4304;53.876;10.662;2023-08-12T04:01:59;4.32;;;1.63;;
8532;SDS011;4304;53.876;10.662;2023-08-12T04:04:24;3.10;;;1.50;;
8532;SDS011;4304;53.876;10.662;2023-08-12T04:06:50;2.83;;;1.38;;
8532;SDS011;4304;53.876;10.662;2023-08-12T04:09:18;4.65;;;1.55;;
8532;SDS011;4304;53.876;10.662;2023-08-12T04:11:44;3.63;;;1.50;;
8532;SDS011;4304;53.876;10.662;2023-08-12T04:14:12;4.70;;;1.83;;
8532;SDS011;4304;53.876;10.662;2023-08-12T04:16:38;5.53;;;1.95;;
8532;SDS011;4304;53.876;10.662;2023-08-12T04:19:04;4.63;;;1.80;;
8532;SDS011;4304;53.876;10.662;2023-08-12T04:21:29;3.88;;;1.67;;
8532;SDS011;4304;53.876;10.662;2023-08-12T04:23:55;4.32;;;1.90;;
8532;SDS011;4304;53.876;10.662;2023-08-12T04:26:20;5.00;;;2.33;;
8532;SDS011;4304;53.876;10.662;2023-08-12T04:28:46;3.75;;;1.75;;
8532;SDS011;4304;53.876;10.662;2023-08-12T04:31:11;5.13;;;1.88;;
8532;SDS011;4304;53.876;10.662;2023-08-12T04:33:36;3.38;;;1.33;;
8532;SDS011;4304;53.876;10.662;2023-08-12T04:36:02;5.00;;;2.00;;
8532;SDS011;4304;53.876;10.662;2023-08-12T04:38:27;3.65;;;1.38;;
8532;SDS011;4304;53.876;10.662;2023-08-12T04:40:53;6.07;;;1.90;;
8532;SDS011;4304;53.876;10.662;2023-08-12T04:43:19;3.78;;;1.45;;
8532;SDS011;4304;53.876;10.662;2023-08-12T04:45:45;2.80;;;1.38;;
8532;SDS011;4304;53.876;10.662;2023-08-12T04:48:12;5.40;;;2.25;;
8532;SDS011;4304;53.876;10.662;2023-08-12T04:50:38;2.83;;;1.10;;
8532;SDS011;4304;53.876;10.662;2023-08-12T04:53:03;3.58;;;1.50;;
8532;SDS011;4304;53.876;10.662;2023-08-12T04:55:30;2.83;;;1.27;;
8532;SDS011;4304;53.876;10.662;2023-08-12T04:57:55;3.63;;;1.77;;
8532;SDS011;4304;53.876;10.662;2023-08-12T05:00:21;4.30;;;2.00;;
8532;SDS011;4304;53.876;10.662;2023-08-12T05:02:47;3.28;;;1.70;;
8532;SDS011;4304;53.876;10.662;2023-08-12T05:05:13;4.97;;;2.00;;
8532;SDS011;4304;53.876;10.662;2023-08-12T05:07:38;4.55;;;1.60;;
8532;SDS011;4304;53.876;10.662;2023-08-12T05:10:04;6.85;;;2.20;;
8532;SDS011;4304;53.876;10.662;2023-08-12T05:12:30;3.10;;;1.50;;
8532;SDS011;4304;53.876;10.662;2023-08-12T05:14:55;3.88;;;1.90;;
8532;SDS011;4304;53.876;10.662;2023-08-12T05:17:21;3.65;;;1.40;;
8532;SDS011;4304;53.876;10.662;2023-08-12T05:19:46;3.47;;;2.00;;
8532;SDS011;4304;53.876;10.662;2023-08-12T05:22:11;3.88;;;2.00;;
8532;SDS011;4304;53.876;10.662;2023-08-12T05:24:37;5.30;;;2.10;;
8532;SDS011;4304;53.876;10.662;2023-08-12T05:27:02;3.80;;;1.98;;
8532;SDS011;4304;53.876;10.662;2023-08-12T05:29:29;3.10;;;1.23;;
8532;SDS011;4304;53.876;10.662;2023-08-12T05:31:55;2.58;;;1.38;;
8532;SDS011;4304;53.876;10.662;2023-08-12T05:34:20;5.10;;;2.15;;
8532;SDS011;4304;53.876;10.662;2023-08-12T05:36:45;3.90;;;1.65;;
8532;SDS011;4304;53.876;10.662;2023-08-12T05:39:11;4.03;;;2.08;;
8532;SDS011;4304;53.876;10.662;2023-08-12T05:41:36;4.78;;;1.63;;
8532;SDS011;4304;53.876;10.662;2023-08-12T05:44:02;3.88;;;1.80;;
8532;SDS011;4304;53.876;10.662;2023-08-12T05:46:28;4.80;;;1.83;;
8532;SDS011;4304;53.876;10.662;2023-08-12T05:48:53;3.65;;;1.65;;
8532;SDS011;4304;53.876;10.662;2023-08-12T05:51:19;5.63;;;2.58;;
8532;SDS011;4304;53.876;10.662;2023-08-12T05:53:44;4.15;;;1.60;;
8532;SDS011;4304;53.876;10.662;2023-08-12T05:56:10;3.03;;;1.45;;
8532;SDS011;4304;53.876;10.662;2023-08-12T05:58:35;2.63;;;1.08;;
8532;SDS011;4304;53.876;10.662;2023-08-12T06:01:00;5.95;;;2.60;;
8532;SDS011;4304;53.876;10.662;2023-08-12T06:03:26;4.82;;;2.15;;
8532;SDS011;4304;53.876;10.662;2023-08-12T06:05:51;3.53;;;1.30;;
8532;SDS011;4304;53.876;10.662;2023-08-12T06:08:16;3.38;;;1.48;;
8532;SDS011;4304;53.876;10.662;2023-08-12T06:10:42;4.78;;;2.03;;
8532;SDS011;4304;53.876;10.662;2023-08-12T06:13:08;3.50;;;1.98;;
8532;SDS011;4304;53.876;10.662;2023-08-12T06:15:33;3.90;;;1.67;;
8532;SDS011;4304;53.876;10.662;2023-08-12T06:17:59;5.57;;;1.85;;
8532;SDS011;4304;53.876;10.662;2023-08-12T06:20:25;4.65;;;1.90;;
8532;SDS011;4304;53.876;10.662;2023-08-12T06:22:51;3.85;;;1.63;;
8532;SDS011;4304;53.876;10.662;2023-08-12T06:25:16;5.10;;;2.10;;
8532;SDS011;4304;53.876;10.662;2023-08-12T06:27:42;5.70;;;1.90;;
8532;SDS011;4304;53.876;10.662;2023-08-12T06:30:08;3.45;;;1.48;;
8532;SDS011;4304;53.876;10.662;2023-08-12T06:32:35;4.57;;;1.50;;
8532;SDS011;4304;53.876;10.662;2023-08-12T06:35:00;3.67;;;1.92;;
8532;SDS011;4304;53.876;10.662;2023-08-12T06:37:26;4.80;;;1.85;;
8532;SDS011;4304;53.876;10.662;2023-08-12T06:39:51;4.95;;;1.92;;
8532;SDS011;4304;53.876;10.662;2023-08-12T06:42:17;8.35;;;1.48;;
8532;SDS011;4304;53.876;10.662;2023-08-12T06:44:42;5.15;;;1.80;;
8532;SDS011;4304;53.876;10.662;2023-08-12T06:47:07;6.10;;;1.45;;
8532;SDS011;4304;53.876;10.662;2023-08-12T06:49:33;4.25;;;1.88;;
8532;SDS011;4304;53.876;10.662;2023-08-12T06:51:58;3.25;;;1.60;;
8532;SDS011;4304;53.876;10.662;2023-08-12T06:54:23;2.10;;;1.23;;
8532;SDS011;4304;53.876;10.662;2023-08-12T06:56:49;4.68;;;2.08;;
8532;SDS011;4304;53.876;10.662;2023-08-12T06:59:15;3.70;;;1.67;;
8532;SDS011;4304;53.876;10.662;2023-08-12T07:01:40;5.20;;;2.25;;
8532;SDS011;4304;53.876;10.662;2023-08-12T07:04:06;5.78;;;1.92;;
8532;SDS011;4304;53.876;10.662;2023-08-12T07:06:31;4.07;;;2.20;;
8532;SDS011;4304;53.876;10.662;2023-08-12T07:08:57;6.18;;;1.85;;
8532;SDS011;4304;53.876;10.662;2023-08-12T07:11:22;3.53;;;1.80;;
8532;SDS011;4304;53.876;10.662;2023-08-12T07:13:47;3.40;;;1.48;;
8532;SDS011;4304;53.876;10.662;2023-08-12T07:16:13;3.88;;;1.85;;
8532;SDS011;4304;53.876;10.662;2023-08-12T07:18:38;3.80;;;1.55;;
8532;SDS011;4304;53.876;10.662;2023-08-12T07:21:04;3.35;;;1.70;;
8532;SDS011;4304;53.876;10.662;2023-08-12T07:23:29;4.75;;;1.98;;
8532;SDS011;4304;53.876;10.662;2023-08-12T07:25:54;4.22;;;1.45;;
8532;SDS011;4304;53.876;10.662;2023-08-12T07:28:20;5.85;;;2.03;;
8532;SDS011;4304;53.876;10.662;2023-08-12T07:30:45;2.67;;;1.15;;
8532;SDS011;4304;53.876;10.662;2023-08-12T07:33:12;4.03;;;1.88;;
8532;SDS011;4304;53.876;10.662;2023-08-12T07:35:37;5.60;;;2.05;;
8532;SDS011;4304;53.876;10.662;2023-08-12T07:38:03;4.97;;;2.13;;
8532;SDS011;4304;53.876;10.662;2023-08-12T07:40:28;5.47;;;1.88;;
8532;SDS011;4304;53.876;10.662;2023-08-12T07:42:54;4.00;;;1.80;;
8532;SDS011;4304;53.876;10.662;2023-08-12T07:45:21;3.92;;;1.70;;
8532;SDS011;4304;53.876;10.662;2023-08-12T07:47:47;5.97;;;1.60;;
8532;SDS011;4304;53.876;10.662;2023-08-12T07:50:13;4.05;;;2.00;;
8532;SDS011;4304;53.876;10.662;2023-08-12T07:52:39;5.07;;;1.55;;
8532;SDS011;4304;53.876;10.662;2023-08-12T07:55:04;3.78;;;1.95;;
8532;SDS011;4304;53.876;10.662;2023-08-12T07:57:29;3.50;;;1.73;;
8532;SDS011;4304;53.876;10.662;2023-08-12T07:59:55;3.70;;;2.22;;
8532;SDS011;4304;53.876;10.662;2023-08-12T08:02:20;3.58;;;1.80;;
8532;SDS011;4304;53.876;10.662;2023-08-12T08:04:46;5.05;;;2.35;;
8532;SDS011;4304;53.876;10.662;2023-08-12T08:07:14;3.47;;;1.70;;
8532;SDS011;4304;53.876;10.662;2023-08-12T08:09:40;4.45;;;1.98;;
8532;SDS011;4304;53.876;10.662;2023-08-12T08:12:06;5.17;;;1.93;;
8532;SDS011;4304;53.876;10.662;2023-08-12T08:14:32;3.50;;;1.90;;
8532;SDS011;4304;53.876;10.662;2023-08-12T08:16:57;4.50;;;2.60;;
8532;SDS011;4304;53.876;10.662;2023-08-12T08:19:23;5.82;;;2.58;;
8532;SDS011;4304;53.876;10.662;2023-08-12T08:21:48;4.38;;;2.40;;
8532;SDS011;4304;53.876;10.662;2023-08-12T08:24:13;4.40;;;1.98;;
8532;SDS011;4304;53.876;10.662;2023-08-12T08:26:39;7.03;;;2.50;;
8532;SDS011;4304;53.876;10.662;2023-08-12T08:29:08;4.32;;;2.15;;
8532;SDS011;4304;53.876;10.662;2023-08-12T08:31:34;4.55;;;2.30;;
8532;SDS011;4304;53.876;10.662;2023-08-12T08:33:59;2.92;;;1.70;;
8532;SDS011;4304;53.876;10.662;2023-08-12T08:36:24;4.65;;;2.45;;
8532;SDS011;4304;53.876;10.662;2023-08-12T08:38:50;9.15;;;2.42;;
8532;SDS011;4304;53.876;10.662;2023-08-12T08:41:16;5.53;;;2.05;;
8532;SDS011;4304;53.876;10.662;2023-08-12T08:43:42;5.40;;;2.47;;
8532;SDS011;4304;53.876;10.662;2023-08-12T08:46:10;5.05;;;2.55;;
8532;SDS011;4304;53.876;10.662;2023-08-12T08:48:39;7.50;;;2.67;;
8532;SDS011;4304;53.876;10.662;2023-08-12T08:51:06;4.63;;;2.22;;
8532;SDS011;4304;53.876;10.662;2023-08-12T08:53:34;4.45;;;2.38;;
8532;SDS011;4304;53.876;10.662;2023-08-12T08:56:06;4.13;;;2.35;;
8532;SDS011;4304;53.876;10.662;2023-08-12T08:58:33;4.50;;;3.00;;
8532;SDS011;4304;53.876;10.662;2023-08-12T09:00:59;4.20;;;2.33;;
8532;SDS011;4304;53.876;10.662;2023-08-12T09:03:25;7.28;;;2.70;;
8532;SDS011;4304;53.876;10.662;2023-08-12T09:05:51;4.93;;;2.15;;
8532;SDS011;4304;53.876;10.662;2023-08-12T09:08:19;4.72;;;2.30;;
8532;SDS011;4304;53.876;10.662;2023-08-12T09:10:45;4.13;;;2.40;;
8532;SDS011;4304;53.876;10.662;2023-08-12T09:13:12;4.10;;;2.38;;
8532;SDS011;4304;53.876;10.662;2023-08-12T09:15:38;5.32;;;2.40;;
8532;SDS011;4304;53.876;10.662;2023-08-12T09:18:07;4.72;;;2.60;;
8532;SDS011;4304;53.876;10.662;2023-08-12T09:20:33;5.10;;;2.38;;
8532;SDS011;4304;53.876;10.662;2023-08-12T09:22:59;5.28;;;2.38;;
8532;SDS011;4304;53.876;10.662;2023-08-12T09:25:26;4.32;;;2.40;;
8532;SDS011;4304;53.876;10.662;2023-08-12T09:27:54;8.30;;;2.47;;
8532;SDS011;4304;53.876;10.662;2023-08-12T09:30:21;4.35;;;2.03;;
8532;SDS011;4304;53.876;10.662;2023-08-12T09:33:03;4.25;;;2.60;;
8532;SDS011;4304;53.876;10.662;2023-08-12T09:35:35;4.43;;;2.53;;
8532;SDS011;4304;53.876;10.662;2023-08-12T09:38:05;3.42;;;2.30;;
8532;SDS011;4304;53.876;10.662;2023-08-12T09:40:37;4.35;;;2.40;;
8532;SDS011;4304;53.876;10.662;2023-08-12T09:45:35;5.47;;;2.65;;
8532;SDS011;4304;53.876;10.662;2023-08-12T09:48:09;6.55;;;2.35;;
8532;SDS011;4304;53.876;10.662;2023-08-12T09:50:34;4.55;;;2.10;;
8532;SDS011;4304;53.876;10.662;2023-08-12T09:53:01;4.88;;;2.17;;
8532;SDS011;4304;53.876;10.662;2023-08-12T09:55:28;5.18;;;2.47;;
8532;SDS011;4304;53.876;10.662;2023-08-12T09:57:56;6.07;;;2.38;;
8532;SDS011;4304;53.876;10.662;2023-08-12T10:00:24;3.88;;;2.17;;
8532;SDS011;4304;53.876;10.662;2023-08-12T10:02:51;4.32;;;2.20;;
8532;SDS011;4304;53.876;10.662;2023-08-12T10:07:47;4.25;;;2.13;;
8532;SDS011;4304;53.876;10.662;2023-08-12T10:10:14;7.20;;;2.40;;
8532;SDS011;4304;53.876;10.662;2023-08-12T10:12:40;3.38;;;2.00;;
8532;SDS011;4304;53.876;10.662;2023-08-12T10:15:06;5.28;;;2.58;;
8532;SDS011;4304;53.876;10.662;2023-08-12T10:17:34;4.72;;;2.53;;
8532;SDS011;4304;53.876;10.662;2023-08-12T10:20:00;6.82;;;2.75;;
8532;SDS011;4304;53.876;10.662;2023-08-12T10:22:29;5.70;;;2.00;;
8532;SDS011;4304;53.876;10.662;2023-08-12T10:24:57;6.22;;;2.58;;
8532;SDS011;4304;53.876;10.662;2023-08-12T10:27:24;3.58;;;2.38;;
8532;SDS011;4304;53.876;10.662;2023-08-12T10:29:50;3.90;;;2.22;;
8532;SDS011;4304;53.876;10.662;2023-08-12T10:32:16;5.25;;;2.33;;
8532;SDS011;4304;53.876;10.662;2023-08-12T10:34:41;4.88;;;2.13;;
8532;SDS011;4304;53.876;10.662;2023-08-12T10:37:08;6.93;;;2.53;;
8532;SDS011;4304;53.876;10.662;2023-08-12T10:39:36;3.58;;;2.17;;
8532;SDS011;4304;53.876;10.662;2023-08-12T10:42:01;6.13;;;2.33;;
8532;SDS011;4304;53.876;10.662;2023-08-12T10:44:28;4.25;;;2.25;;
8532;SDS011;4304;53.876;10.662;2023-08-12T10:47:07;5.85;;;2.55;;
8532;SDS011;4304;53.876;10.662;2023-08-12T10:49:37;4.13;;;2.65;;
8532;SDS011;4304;53.876;10.662;2023-08-12T10:52:04;4.50;;;2.35;;
8532;SDS011;4304;53.876;10.662;2023-08-12T10:54:29;4.15;;;2.22;;
8532;SDS011;4304;53.876;10.662;2023-08-12T11:02:32;4.53;;;2.10;;
8532;SDS011;4304;53.876;10.662;2023-08-12T11:07:38;5.18;;;2.97;;
8532;SDS011;4304;53.876;10.662;2023-08-12T11:10:25;3.83;;;2.15;;
8532;SDS011;4304;53.876;10.662;2023-08-12T11:12:54;4.65;;;2.65;;
8532;SDS011;4304;53.876;10.662;2023-08-12T11:15:36;4.78;;;2.72;;
8532;SDS011;4304;53.876;10.662;2023-08-12T11:18:07;4.50;;;2.70;;
8532;SDS011;4304;53.876;10.662;2023-08-12T11:20:34;6.13;;;2.55;;
8532;SDS011;4304;53.876;10.662;2023-08-12T11:23:01;5.53;;;2.83;;
8532;SDS011;4304;53.876;10.662;2023-08-12T11:25:28;7.45;;;2.58;;
8532;SDS011;4304;53.876;10.662;2023-08-12T11:27:54;7.35;;;2.90;;
8532;SDS011;4304;53.876;10.662;2023-08-12T11:30:20;4.10;;;2.55;;
8532;SDS011;4304;53.876;10.662;2023-08-12T11:32:47;5.03;;;2.67;;
8532;SDS011;4304;53.876;10.662;2023-08-12T11:35:15;5.25;;;2.60;;
8532;SDS011;4304;53.876;10.662;2023-08-12T11:37:42;5.78;;;3.15;;
8532;SDS011;4304;53.876;10.662;2023-08-12T11:40:09;6.65;;;3.72;;
8532;SDS011;4304;53.876;10.662;2023-08-12T11:42:36;6.22;;;3.10;;
8532;SDS011;4304;53.876;10.662;2023-08-12T11:45:04;4.65;;;2.85;;
8532;SDS011;4304;53.876;10.662;2023-08-12T11:47:30;4.55;;;2.75;;
8532;SDS011;4304;53.876;10.662;2023-08-12T11:49:56;4.80;;;2.42;;
8532;SDS011;4304;53.876;10.662;2023-08-12T11:52:21;4.78;;;2.50;;
8532;SDS011;4304;53.876;10.662;2023-08-12T11:54:49;4.57;;;2.95;;
8532;SDS011;4304;53.876;10.662;2023-08-12T11:57:15;5.82;;;2.70;;
8532;SDS011;4304;53.876;10.662;2023-08-12T11:59:41;6.55;;;2.58;;
8532;SDS011;4304;53.876;10.662;2023-08-12T12:02:06;5.43;;;3.00;;
8532;SDS011;4304;53.876;10.662;2023-08-12T12:04:32;5.72;;;2.90;;
8532;SDS011;4304;53.876;10.662;2023-08-12T12:06:57;3.50;;;2.20;;
8532;SDS011;4304;53.876;10.662;2023-08-12T12:09:25;6.43;;;3.15;;
8532;SDS011;4304;53.876;10.662;2023-08-12T12:11:51;6.38;;;2.67;;
8532;SDS011;4304;53.876;10.662;2023-08-12T12:14:18;5.40;;;3.22;;
8532;SDS011;4304;53.876;10.662;2023-08-12T12:16:44;5.40;;;3.13;;
8532;SDS011;4304;53.876;10.662;2023-08-12T12:19:15;3.92;;;2.40;;
8532;SDS011;4304;53.876;10.662;2023-08-12T12:21:48;5.85;;;2.80;;
8532;SDS011;4304;53.876;10.662;2023-08-12T12:24:15;6.15;;;2.83;;
8532;SDS011;4304;53.876;10.662;2023-08-12T12:26:41;6.50;;;3.17;;
8532;SDS011;4304;53.876;10.662;2023-08-12T12:29:07;6.53;;;2.90;;
8532;SDS011;4304;53.876;10.662;2023-08-12T12:31:33;5.90;;;2.75;;
8532;SDS011;4304;53.876;10.662;2023-08-12T12:34:00;5.45;;;2.70;;
8532;SDS011;4304;53.876;10.662;2023-08-12T12:36:26;6.85;;;2.70;;
8532;SDS011;4304;53.876;10.662;2023-08-12T12:38:51;5.65;;;3.20;;
8532;SDS011;4304;53.876;10.662;2023-08-12T12:41:17;5.50;;;2.85;;
8532;SDS011;4304;53.876;10.662;2023-08-12T12:43:42;5.22;;;3.00;;
8532;SDS011;4304;53.876;10.662;2023-08-12T12:46:07;8.68;;;3.00;;
8532;SDS011;4304;53.876;10.662;2023-08-12T12:48:33;6.68;;;2.72;;
8532;SDS011;4304;53.876;10.662;2023-08-12T12:50:59;6.80;;;3.10;;
8532;SDS011;4304;53.876;10.662;2023-08-12T12:53:24;5.03;;;2.55;;
8532;SDS011;4304;53.876;10.662;2023-08-12T12:55:49;5.57;;;2.92;;
8532;SDS011;4304;53.876;10.662;2023-08-12T12:58:15;5.63;;;2.80;;
8532;SDS011;4304;53.876;10.662;2023-08-12T13:00:41;7.38;;;2.65;;
8532;SDS011;4304;53.876;10.662;2023-08-12T13:03:06;5.25;;;2.70;;
8532;SDS011;4304;53.876;10.662;2023-08-12T13:05:32;6.72;;;2.97;;
8532;SDS011;4304;53.876;10.662;2023-08-12T13:07:57;6.75;;;3.10;;
8532;SDS011;4304;53.876;10.662;2023-08-12T13:10:22;5.18;;;3.13;;
8532;SDS011;4304;53.876;10.662;2023-08-12T13:12:48;4.97;;;2.88;;
8532;SDS011;4304;53.876;10.662;2023-08-12T13:15:13;5.47;;;3.38;;
8532;SDS011;4304;53.876;10.662;2023-08-12T13:17:39;9.70;;;3.28;;
8532;SDS011;4304;53.876;10.662;2023-08-12T13:20:05;9.90;;;3.70;;
8532;SDS011;4304;53.876;10.662;2023-08-12T13:22:31;12.70;;;4.43;;
8532;SDS011;4304;53.876;10.662;2023-08-12T13:24:56;9.27;;;4.20;;
8532;SDS011;4304;53.876;10.662;2023-08-12T13:27:22;9.20;;;3.40;;
8532;SDS011;4304;53.876;10.662;2023-08-12T13:29:48;5.45;;;2.92;;
8532;SDS011;4304;53.876;10.662;2023-08-12T13:32:13;6.05;;;3.20;;
8532;SDS011;4304;53.876;10.662;2023-08-12T13:34:39;8.73;;;4.00;;
8532;SDS011;4304;53.876;10.662;2023-08-12T13:37:04;5.50;;;3.70;;
8532;SDS011;4304;53.876;10.662;2023-08-12T13:39:30;5.65;;;3.45;;
8532;SDS011;4304;53.876;10.662;2023-08-12T13:41:56;5.85;;;3.60;;
8532;SDS011;4304;53.876;10.662;2023-08-12T13:44:21;9.18;;;4.05;;
8532;SDS011;4304;53.876;10.662;2023-08-12T13:46:47;5.13;;;3.08;;
8532;SDS011;4304;53.876;10.662;2023-08-12T13:49:12;6.97;;;2.90;;
8532;SDS011;4304;53.876;10.662;2023-08-12T13:51:38;8.90;;;3.70;;
8532;SDS011;4304;53.876;10.662;2023-08-12T13:54:03;5.72;;;3.78;;
8532;SDS011;4304;53.876;10.662;2023-08-12T13:56:29;6.95;;;3.50;;
8532;SDS011;4304;53.876;10.662;2023-08-12T13:58:54;9.10;;;3.88;;
8532;SDS011;4304;53.876;10.662;2023-08-12T14:01:21;6.88;;;3.47;;
8532;SDS011;4304;53.876;10.662;2023-08-12T14:03:46;5.20;;;2.78;;
8532;SDS011;4304;53.876;10.662;2023-08-12T14:06:12;8.75;;;3.88;;
8532;SDS011;4304;53.876;10.662;2023-08-12T14:08:37;9.07;;;3.33;;
8532;SDS011;4304;53.876;10.662;2023-08-12T14:11:03;6.47;;;3.53;;
8532;SDS011;4304;53.876;10.662;2023-08-12T14:13:28;6.15;;;3.83;;
8532;SDS011;4304;53.876;10.662;2023-08-12T14:15:54;5.45;;;3.58;;
8532;SDS011;4304;53.876;10.662;2023-08-12T14:18:19;5.65;;;3.63;;
8532;SDS011;4304;53.876;10.662;2023-08-12T14:20:45;4.90;;;2.65;;
8532;SDS011;4304;53.876;10.662;2023-08-12T14:23:10;5.80;;;3.60;;
8532;SDS011;4304;53.876;10.662;2023-08-12T14:25:35;7.05;;;4.18;;
8532;SDS011;4304;53.876;10.662;2023-08-12T14:28:01;8.90;;;4.28;;
8532;SDS011;4304;53.876;10.662;2023-08-12T14:30:26;6.47;;;3.45;;
8532;SDS011;4304;53.876;10.662;2023-08-12T14:32:52;7.03;;;4.05;;
8532;SDS011;4304;53.876;10.662;2023-08-12T14:35:17;8.13;;;3.05;;
8532;SDS011;4304;53.876;10.662;2023-08-12T14:37:43;7.22;;;4.30;;
8532;SDS011;4304;53.876;10.662;2023-08-12T14:40:09;5.50;;;3.38;;
8532;SDS011;4304;53.876;10.662;2023-08-12T14:42:34;5.90;;;3.58;;
8532;SDS011;4304;53.876;10.662;2023-08-12T14:45:00;7.95;;;3.70;;
8532;SDS011;4304;53.876;10.662;2023-08-12T14:47:25;6.20;;;3.13;;
8532;SDS011;4304;53.876;10.662;2023-08-12T14:49:50;6.28;;;3.90;;
8532;SDS011;4304;53.876;10.662;2023-08-12T14:52:18;6.88;;;3.72;;
8532;SDS011;4304;53.876;10.662;2023-08-12T14:54:44;7.88;;;3.38;;
8532;SDS011;4304;53.876;10.662;2023-08-12T14:57:10;5.45;;;2.92;;
8532;SDS011;4304;53.876;10.662;2023-08-12T14:59:36;6.60;;;3.40;;
8532;SDS011;4304;53.876;10.662;2023-08-12T15:02:01;4.80;;;3.08;;
8532;SDS011;4304;53.876;10.662;2023-08-12T15:04:27;6.20;;;3.70;;
8532;SDS011;4304;53.876;10.662;2023-08-12T15:06:52;6.40;;;3.80;;